createdAt,value
2022-08-19T00:01:54.499Z,20.27
2022-08-19T00:04:25.297Z,20.70
2022-08-19T00:06:54.079Z,19.33
2022-08-19T00:09:24.484Z,22.13
2022-08-19T00:11:56.417Z,19.52
2022-08-19T00:14:26.180Z,21.77
2022-08-19T00:16:55.454Z,19.38
2022-08-19T00:19:24.696Z,22.33
2022-08-19T00:21:53.064Z,18.92
2022-08-19T00:24:21.052Z,20.50
2022-08-19T00:26:48.966Z,21.38
2022-08-19T00:29:20.518Z,19.90
2022-08-19T00:31:50.731Z,17.70
2022-08-19T00:34:18.949Z,19.70
2022-08-19T00:36:47.327Z,19.00
2022-08-19T00:39:17.043Z,22.65
2022-08-19T00:41:47.804Z,19.02
2022-08-19T00:44:21.257Z,21.40
2022-08-19T00:46:58.030Z,19.48
2022-08-19T00:49:31.756Z,21.90
2022-08-19T00:52:05.303Z,19.20
2022-08-19T00:54:34.407Z,20.67
2022-08-19T00:57:06.157Z,21.17
2022-08-19T00:59:58.766Z,21.08
2022-08-19T01:02:28.509Z,20.50
2022-08-19T01:04:57.592Z,20.98
2022-08-19T01:07:25.698Z,20.55
2022-08-19T01:09:54.245Z,21.13
2022-08-19T01:12:22.575Z,21.23
2022-08-19T01:14:53.486Z,20.80
2022-08-19T01:17:21.661Z,20.45
2022-08-19T01:19:50.602Z,19.60
2022-08-19T01:22:30.043Z,22.85
2022-08-19T01:25:01.112Z,20.45
2022-08-19T01:27:33.834Z,19.20
2022-08-19T01:30:15.729Z,18.98
2022-08-19T01:32:44.322Z,21.05
2022-08-19T01:35:13.541Z,19.58
2022-08-19T01:37:46.010Z,21.52
2022-08-19T01:40:16.775Z,20.33
2022-08-19T01:42:44.946Z,21.23
2022-08-19T01:45:12.846Z,20.88
2022-08-19T01:47:41.196Z,23.23
2022-08-19T01:50:11.554Z,22.13
2022-08-19T01:52:40.318Z,21.40
2022-08-19T01:55:11.424Z,25.50
2022-08-19T01:57:43.173Z,23.08
2022-08-19T02:00:16.311Z,23.38
2022-08-19T02:02:44.516Z,24.48
2022-08-19T02:05:13.908Z,25.60
2022-08-19T02:07:43.213Z,24.90
2022-08-19T02:10:16.546Z,24.88
2022-08-19T02:12:46.501Z,25.23
2022-08-19T02:15:15.638Z,24.98
2022-08-19T02:17:44.002Z,23.35
2022-08-19T02:20:13.993Z,22.02
2022-08-19T02:22:43.367Z,24.17
2022-08-19T02:25:11.848Z,21.75
2022-08-19T02:27:40.334Z,24.05
2022-08-19T02:30:14.815Z,22.48
2022-08-19T02:32:54.265Z,23.23
2022-08-19T02:35:23.225Z,23.40
2022-08-19T02:38:08.584Z,23.13
2022-08-19T02:40:37.168Z,25.60
2022-08-19T02:43:07.593Z,22.85
2022-08-19T02:45:40.589Z,25.55
2022-08-19T02:48:17.864Z,23.50
2022-08-19T02:50:53.805Z,24.02
2022-08-19T02:53:23.019Z,24.25
2022-08-19T02:55:53.266Z,27.60
2022-08-19T02:58:23.203Z,23.45
2022-08-19T03:00:56.796Z,25.17
2022-08-19T03:03:25.390Z,25.15
2022-08-19T03:05:56.804Z,22.90
2022-08-19T03:08:26.454Z,24.67
2022-08-19T03:10:54.965Z,26.58
2022-08-19T03:13:24.972Z,22.73
2022-08-19T03:15:54.245Z,24.02
2022-08-19T03:18:23.255Z,25.27
2022-08-19T03:20:55.381Z,23.45
2022-08-19T03:23:24.085Z,21.50
2022-08-19T03:25:58.130Z,22.85
2022-08-19T03:28:31.966Z,26.73
2022-08-19T03:31:02.716Z,27.10
2022-08-19T03:33:33.591Z,25.88
2022-08-19T03:36:09.791Z,27.20
2022-08-19T03:38:39.270Z,24.38
2022-08-19T03:41:09.285Z,25.23
2022-08-19T03:43:38.854Z,23.40
2022-08-19T03:46:10.942Z,23.63
2022-08-19T03:48:40.399Z,26.42
2022-08-19T03:51:09.505Z,23.45
2022-08-19T03:53:37.781Z,24.83
2022-08-19T03:56:05.800Z,23.02
2022-08-19T03:58:33.593Z,22.90
2022-08-19T04:01:01.722Z,26.10
2022-08-19T04:03:30.893Z,23.83
2022-08-19T04:05:58.706Z,24.98
2022-08-19T04:08:26.678Z,25.63
2022-08-19T04:10:55.043Z,22.85
2022-08-19T04:13:23.048Z,25.67
2022-08-19T04:15:50.866Z,24.85
2022-08-19T04:18:18.706Z,24.90
2022-08-19T04:20:49.651Z,23.63
2022-08-19T04:23:17.667Z,25.30
2022-08-19T04:25:46.583Z,26.38
2022-08-19T04:28:15.560Z,27.67
2022-08-19T04:30:45.829Z,34.90
2022-08-19T04:33:16.233Z,29.45
2022-08-19T04:35:50.249Z,26.60
2022-08-19T04:38:19.123Z,27.58
2022-08-19T04:41:06.580Z,25.45
2022-08-19T04:43:35.795Z,25.88
2022-08-19T04:46:07.201Z,26.25
2022-08-19T04:48:36.056Z,25.42
2022-08-19T04:51:14.844Z,24.30
2022-08-19T04:53:44.027Z,27.25
2022-08-19T04:56:14.770Z,26.20
2022-08-19T04:58:45.277Z,24.77
2022-08-19T05:01:15.059Z,24.48
2022-08-19T05:03:42.926Z,26.67
2022-08-19T05:06:15.401Z,27.92
2022-08-19T05:08:45.458Z,29.73
2022-08-19T05:11:16.136Z,28.08
2022-08-19T05:13:44.633Z,26.65
2022-08-19T05:16:14.324Z,23.70
2022-08-19T05:19:00.353Z,26.83
2022-08-19T05:21:47.354Z,30.25
2022-08-19T05:24:16.038Z,26.73
2022-08-19T05:26:47.191Z,28.67
2022-08-19T05:29:16.933Z,27.00
2022-08-19T05:31:45.389Z,23.02
2022-08-19T05:34:18.211Z,25.08
2022-08-19T05:36:52.078Z,22.80
2022-08-19T05:39:22.444Z,27.83
2022-08-19T05:41:53.642Z,25.50
2022-08-19T05:44:22.767Z,28.02
2022-08-19T05:46:53.721Z,27.45
2022-08-19T05:49:23.588Z,27.45
2022-08-19T05:51:53.323Z,28.30
2022-08-19T05:54:21.370Z,28.67
2022-08-19T05:56:49.462Z,30.70
2022-08-19T05:59:18.598Z,30.05
2022-08-19T06:01:51.348Z,26.55
2022-08-19T06:04:20.499Z,30.73
2022-08-19T06:06:48.874Z,30.15
2022-08-19T06:09:18.112Z,31.33
2022-08-19T06:11:47.953Z,28.83
2022-08-19T06:14:19.634Z,31.10
2022-08-19T06:16:55.585Z,31.15
2022-08-19T06:19:26.317Z,31.48
2022-08-19T06:21:55.023Z,36.55
2022-08-19T06:24:26.334Z,28.13
2022-08-19T06:27:00.769Z,33.22
2022-08-19T06:29:30.812Z,30.95
2022-08-19T06:32:01.416Z,32.78
2022-08-19T06:34:31.518Z,29.67
2022-08-19T06:37:02.167Z,30.10
2022-08-19T06:39:35.554Z,35.03
2022-08-19T06:42:07.172Z,32.28
2022-08-19T06:44:42.619Z,29.90
2022-08-19T06:47:14.852Z,32.83
2022-08-19T06:49:51.396Z,28.13
2022-08-19T06:52:19.259Z,34.00
2022-08-19T06:54:56.602Z,30.90
2022-08-19T06:57:25.847Z,29.58
2022-08-19T06:59:54.322Z,31.95
2022-08-19T07:02:27.176Z,31.52
2022-08-19T07:04:56.698Z,33.90
2022-08-19T07:07:25.363Z,28.45
2022-08-19T07:09:59.291Z,31.50
2022-08-19T07:12:32.258Z,30.15
2022-08-19T07:15:00.942Z,28.73
2022-08-19T07:17:29.331Z,32.83
2022-08-19T07:19:58.930Z,34.35
2022-08-19T07:22:34.759Z,30.65
2022-08-19T07:25:05.488Z,29.15
2022-08-19T07:27:33.857Z,29.23
2022-08-19T07:30:02.337Z,28.75
2022-08-19T07:32:31.327Z,29.35
2022-08-19T07:35:01.468Z,31.20
2022-08-19T07:37:33.035Z,30.08
2022-08-19T07:40:01.503Z,25.65
2022-08-19T07:42:31.476Z,26.70
2022-08-19T07:44:59.859Z,27.92
2022-08-19T07:47:49.365Z,25.20
2022-08-19T07:50:19.336Z,28.20
2022-08-19T07:52:49.024Z,24.88
2022-08-19T07:55:41.159Z,22.92
2022-08-19T07:58:10.160Z,24.65
2022-08-19T08:00:38.425Z,23.77
2022-08-19T08:03:06.308Z,30.98
2022-08-19T08:05:52.014Z,25.50
2022-08-19T08:08:44.494Z,27.85
2022-08-19T08:11:19.915Z,27.98
2022-08-19T08:14:00.963Z,28.92
2022-08-19T08:16:35.731Z,23.75
2022-08-19T08:19:20.266Z,17.95
2022-08-19T08:21:52.065Z,25.17
2022-08-19T08:24:21.143Z,16.67
2022-08-19T08:26:52.120Z,21.00
2022-08-19T08:29:26.800Z,17.80
2022-08-19T08:32:03.555Z,17.65
2022-08-19T08:34:31.391Z,20.40
2022-08-19T08:36:59.585Z,15.02
2022-08-19T08:39:27.399Z,16.92
2022-08-19T08:42:10.342Z,15.85
2022-08-19T08:45:00.866Z,16.20
2022-08-19T08:47:33.500Z,20.40
2022-08-19T08:50:04.954Z,20.33
2022-08-19T08:52:37.097Z,15.15
2022-08-19T08:55:12.435Z,15.05
2022-08-19T08:57:51.674Z,13.40
2022-08-19T09:00:25.001Z,14.48
2022-08-19T09:02:53.104Z,19.83
2022-08-19T09:05:26.123Z,14.52
2022-08-19T09:08:02.672Z,15.52
2022-08-19T09:10:44.239Z,18.42
2022-08-19T09:13:20.520Z,17.50
2022-08-19T09:15:56.944Z,17.13
2022-08-19T09:18:24.970Z,19.75
2022-08-19T09:20:58.072Z,19.83
2022-08-19T09:23:26.975Z,15.70
2022-08-19T09:25:55.154Z,16.55
2022-08-19T09:28:27.010Z,16.73
2022-08-19T09:30:56.949Z,16.15
2022-08-19T09:33:24.785Z,16.95
2022-08-19T09:35:53.662Z,17.13
2022-08-19T09:38:22.126Z,18.48
2022-08-19T09:40:51.229Z,22.45
2022-08-19T09:43:33.191Z,17.55
2022-08-19T09:46:03.385Z,18.85
2022-08-19T09:48:31.444Z,17.17
2022-08-19T09:51:05.312Z,18.05
2022-08-19T09:56:04.093Z,18.35
2022-08-19T09:58:32.124Z,16.73
2022-08-19T10:01:01.521Z,20.83
2022-08-19T10:03:32.574Z,19.60
2022-08-19T10:06:02.784Z,19.80
2022-08-19T10:08:34.875Z,25.17
2022-08-19T10:11:28.692Z,21.10
2022-08-19T10:13:51.380Z,23.17
2022-08-19T10:16:23.140Z,18.40
2022-08-19T10:18:58.830Z,21.98
2022-08-19T10:21:29.399Z,26.30
2022-08-19T10:24:04.655Z,21.60
2022-08-19T10:26:37.307Z,25.60
2022-08-19T10:29:09.108Z,20.33
2022-08-19T10:32:01.076Z,20.83
2022-08-19T10:34:28.366Z,18.33
2022-08-19T10:37:01.314Z,18.23
2022-08-19T10:39:31.644Z,17.60
2022-08-19T10:42:01.375Z,22.50
2022-08-19T10:44:32.689Z,17.70
2022-08-19T10:47:01.436Z,17.02
2022-08-19T10:49:31.066Z,14.10
2022-08-19T10:52:18.652Z,13.90
2022-08-19T10:55:08.386Z,12.88
2022-08-19T11:00:26.771Z,12.65
2022-08-19T11:02:54.632Z,13.93
2022-08-19T11:05:24.452Z,13.00
2022-08-19T11:07:53.013Z,12.93
2022-08-19T11:10:22.400Z,11.40
2022-08-19T11:12:53.949Z,11.15
2022-08-19T11:15:21.918Z,16.02
2022-08-19T11:17:49.772Z,12.40
2022-08-19T11:20:17.728Z,17.85
2022-08-19T11:22:46.936Z,11.00
2022-08-19T11:25:16.538Z,12.88
2022-08-19T11:27:45.643Z,11.25
2022-08-19T11:30:16.029Z,10.48
2022-08-19T11:32:49.058Z,10.38
2022-08-19T11:35:17.734Z,8.83
2022-08-19T11:37:46.958Z,10.27
2022-08-19T11:40:15.121Z,10.45
2022-08-19T11:42:58.252Z,16.60
2022-08-19T11:45:28.904Z,16.45
2022-08-19T11:47:57.186Z,10.35
2022-08-19T11:50:25.696Z,14.20
2022-08-19T11:52:57.271Z,13.73
2022-08-19T11:55:25.546Z,10.98
2022-08-19T11:57:53.615Z,12.73
2022-08-19T12:00:21.652Z,11.80
2022-08-19T12:02:49.484Z,12.65
2022-08-19T12:05:17.519Z,12.52
2022-08-19T12:07:45.391Z,9.93
2022-08-19T12:10:15.359Z,9.95
2022-08-19T12:12:46.637Z,9.40
2022-08-19T12:15:22.553Z,11.30
2022-08-19T12:17:50.431Z,7.95
2022-08-19T12:20:18.392Z,9.43
2022-08-19T12:22:46.179Z,10.80
2022-08-19T12:25:15.352Z,12.07
2022-08-19T12:27:49.638Z,10.10
2022-08-19T12:30:20.701Z,9.82
2022-08-19T12:32:48.477Z,12.02
2022-08-19T12:35:16.372Z,10.35
2022-08-19T12:37:45.506Z,7.60
2022-08-19T12:40:26.486Z,8.25
2022-08-19T12:42:54.725Z,10.75
2022-08-19T12:45:23.618Z,8.98
2022-08-19T12:47:54.788Z,13.50
2022-08-19T12:50:23.422Z,9.00
2022-08-19T12:52:51.558Z,7.78
2022-08-19T12:55:20.060Z,10.95
2022-08-19T12:57:49.834Z,8.50
2022-08-19T13:00:21.813Z,7.63
2022-08-19T13:02:52.772Z,9.77
2022-08-19T13:05:23.563Z,14.05
2022-08-19T13:07:53.181Z,6.65
2022-08-19T13:10:22.587Z,6.63
2022-08-19T13:12:54.169Z,11.63
2022-08-19T13:15:24.532Z,9.27
2022-08-19T13:17:56.699Z,6.35
2022-08-19T13:20:25.182Z,7.07
2022-08-19T13:22:53.278Z,5.47
2022-08-19T13:25:21.858Z,6.63
2022-08-19T13:27:52.842Z,5.57
2022-08-19T13:30:39.911Z,7.97
2022-08-19T13:33:16.462Z,6.63
2022-08-19T13:35:47.902Z,6.32
2022-08-19T13:38:18.486Z,7.05
2022-08-19T13:40:47.331Z,9.25
2022-08-19T13:43:22.734Z,7.85
2022-08-19T13:45:56.260Z,8.57
2022-08-19T13:48:26.175Z,11.95
2022-08-19T13:50:55.033Z,9.32
2022-08-19T13:53:23.217Z,9.55
2022-08-19T13:55:51.998Z,8.75
2022-08-19T13:58:21.232Z,8.00
2022-08-19T14:00:49.245Z,7.63
2022-08-19T14:03:17.423Z,8.63
2022-08-19T14:05:45.247Z,6.32
2022-08-19T14:08:15.058Z,7.97
2022-08-19T14:10:45.349Z,8.77
2022-08-19T14:13:16.675Z,7.57
2022-08-19T14:15:46.522Z,8.18
2022-08-19T14:18:14.383Z,12.55
2022-08-19T14:20:42.427Z,7.63
2022-08-19T14:23:10.890Z,9.18
2022-08-19T14:25:38.770Z,7.78
2022-08-19T14:28:07.628Z,9.77
2022-08-19T14:30:38.592Z,11.80
2022-08-19T14:33:09.359Z,10.95
2022-08-19T14:35:38.320Z,9.98
2022-08-19T14:38:07.279Z,10.90
2022-08-19T14:40:35.629Z,7.93
2022-08-19T14:43:06.110Z,9.10
2022-08-19T14:45:36.588Z,10.82
2022-08-19T14:48:05.470Z,10.32
2022-08-19T14:50:35.337Z,8.35
2022-08-19T14:53:11.184Z,6.55
2022-08-19T14:55:44.076Z,11.07
2022-08-19T14:58:28.902Z,8.30
2022-08-19T15:01:00.329Z,9.25
2022-08-19T15:03:28.469Z,9.63
2022-08-19T15:05:58.912Z,8.93
2022-08-19T15:08:27.526Z,10.82
2022-08-19T15:10:57.422Z,8.07
2022-08-19T15:13:26.887Z,11.02
2022-08-19T15:15:55.107Z,10.52
2022-08-19T15:18:23.725Z,9.55
2022-08-19T15:20:51.848Z,11.90
2022-08-19T15:23:22.772Z,10.32
2022-08-19T15:25:54.348Z,8.45
2022-08-19T15:28:22.761Z,8.90
2022-08-19T15:30:51.437Z,12.60
2022-08-19T15:33:21.222Z,7.78
2022-08-19T15:35:50.848Z,7.55
2022-08-19T15:38:20.620Z,11.00
2022-08-19T15:40:50.965Z,12.18
2022-08-19T15:43:21.647Z,9.40
2022-08-19T15:45:49.866Z,6.32
2022-08-19T15:48:18.026Z,6.55
2022-08-19T15:50:45.895Z,4.93
2022-08-19T15:53:13.707Z,7.57
2022-08-19T15:55:45.850Z,9.20
2022-08-19T15:58:34.013Z,5.93
2022-08-19T16:01:23.504Z,3.83
2022-08-19T16:04:14.343Z,6.50
2022-08-19T16:06:45.935Z,3.80
2022-08-19T16:09:14.048Z,6.72
2022-08-19T16:11:45.733Z,5.32
2022-08-19T16:14:16.211Z,4.63
2022-08-19T16:16:46.978Z,3.63
2022-08-19T16:19:17.521Z,6.13
2022-08-19T16:21:47.361Z,6.03
2022-08-19T16:24:17.401Z,5.30
2022-08-19T16:26:46.543Z,7.50
2022-08-19T16:29:33.789Z,3.95
2022-08-19T16:32:03.356Z,6.18
2022-08-19T16:34:31.343Z,6.25
2022-08-19T16:36:59.151Z,6.63
2022-08-19T16:39:26.946Z,4.22
2022-08-19T16:41:54.739Z,4.38
2022-08-19T16:44:24.176Z,5.03
2022-08-19T16:46:58.839Z,5.05
2022-08-19T16:49:54.042Z,5.68
2022-08-19T16:52:16.151Z,3.20
2022-08-19T16:54:44.811Z,3.20
2022-08-19T16:57:13.474Z,3.90
2022-08-19T16:59:48.809Z,6.22
2022-08-19T17:02:18.779Z,3.58
2022-08-19T17:04:57.369Z,4.82
2022-08-19T17:07:26.986Z,4.47
2022-08-19T17:09:55.039Z,5.50
2022-08-19T17:12:30.818Z,4.35
2022-08-19T17:15:03.353Z,4.28
2022-08-19T17:17:31.912Z,6.35
2022-08-19T17:20:00.530Z,3.05
2022-08-19T17:22:29.372Z,3.60
2022-08-19T17:24:58.471Z,3.20
2022-08-19T17:27:32.013Z,3.05
2022-08-19T17:30:02.450Z,4.30
2022-08-19T17:32:30.834Z,3.20
2022-08-19T17:34:58.734Z,5.40
2022-08-19T17:37:26.694Z,5.78
2022-08-19T17:39:54.656Z,5.07
2022-08-19T17:42:22.663Z,2.63
2022-08-19T17:44:51.115Z,5.78
2022-08-19T17:47:21.115Z,2.78
2022-08-19T17:49:49.131Z,5.55
2022-08-19T17:52:17.110Z,2.33
2022-08-19T17:54:45.099Z,2.92
2022-08-19T17:57:14.034Z,2.58
2022-08-19T17:59:41.988Z,3.95
2022-08-19T18:02:11.889Z,3.90
2022-08-19T18:04:45.529Z,6.18
2022-08-19T18:07:21.257Z,3.97
2022-08-19T18:09:51.847Z,2.42
2022-08-19T18:12:24.874Z,3.88
2022-08-19T18:14:53.416Z,4.00
2022-08-19T18:17:23.298Z,7.10
2022-08-19T18:19:52.898Z,3.95
2022-08-19T18:22:27.733Z,5.88
2022-08-19T18:27:23.893Z,9.68
2022-08-19T18:29:51.788Z,4.65
2022-08-19T18:32:23.826Z,5.10
2022-08-19T18:34:54.672Z,3.08
2022-08-19T18:37:22.828Z,3.30
2022-08-19T18:40:08.398Z,5.00
2022-08-19T18:42:53.455Z,3.65
2022-08-19T18:45:38.814Z,6.47
2022-08-19T18:48:28.326Z,6.22
2022-08-19T18:51:00.092Z,5.30
2022-08-19T18:53:30.428Z,5.72
2022-08-19T18:55:59.598Z,4.60
2022-08-19T18:58:32.166Z,4.32
2022-08-19T19:01:02.715Z,7.25
2022-08-19T19:03:30.583Z,5.10
2022-08-19T19:05:59.743Z,7.57
2022-08-19T19:08:28.065Z,4.93
2022-08-19T19:10:57.020Z,6.15
2022-08-19T19:13:24.805Z,7.72
2022-08-19T19:15:54.384Z,5.53
2022-08-19T19:18:22.237Z,5.55
2022-08-19T19:20:50.130Z,6.18
2022-08-19T19:23:20.530Z,6.03
2022-08-19T19:25:51.105Z,5.32
2022-08-19T19:28:23.846Z,5.85
2022-08-19T19:30:52.427Z,3.85
2022-08-19T19:33:21.371Z,3.28
2022-08-19T19:35:49.216Z,3.10
2022-08-19T19:38:17.140Z,4.65
2022-08-19T19:40:46.580Z,5.22
2022-08-19T19:43:18.396Z,4.35
2022-08-19T19:45:48.189Z,5.85
2022-08-19T19:48:16.215Z,5.05
2022-08-19T19:50:44.992Z,6.35
2022-08-19T19:53:15.074Z,4.15
2022-08-19T19:55:43.425Z,5.40
2022-08-19T19:58:12.709Z,3.08
2022-08-19T20:00:40.613Z,5.75
2022-08-19T20:03:09.061Z,2.67
2022-08-19T20:05:36.893Z,3.53
2022-08-19T20:08:23.186Z,3.05
2022-08-19T20:10:50.936Z,5.68
2022-08-19T20:13:20.187Z,3.78
2022-08-19T20:15:48.003Z,4.22
2022-08-19T20:18:15.797Z,5.68
2022-08-19T20:20:44.958Z,4.50
2022-08-19T20:23:13.269Z,4.22
2022-08-19T20:25:41.101Z,4.07
2022-08-19T20:28:08.980Z,4.72
2022-08-19T20:30:42.047Z,3.85
2022-08-19T20:33:14.816Z,3.95
2022-08-19T20:35:44.536Z,3.22
2022-08-19T20:38:12.517Z,4.05
2022-08-19T20:40:41.173Z,3.50
2022-08-19T20:43:10.388Z,5.18
2022-08-19T20:45:39.837Z,3.00
2022-08-19T20:48:10.518Z,6.63
2022-08-19T20:50:39.665Z,5.07
2022-08-19T20:53:12.856Z,2.92
2022-08-19T20:55:41.193Z,6.45
2022-08-19T20:58:11.979Z,4.28
2022-08-19T21:00:43.834Z,4.75
2022-08-19T21:03:11.677Z,6.95
2022-08-19T21:05:39.956Z,2.75
2022-08-19T21:08:08.921Z,4.60
2022-08-19T21:10:41.781Z,3.95
2022-08-19T21:13:10.164Z,3.33
2022-08-19T21:15:40.637Z,5.05
2022-08-19T21:18:10.219Z,3.13
2022-08-19T21:20:38.905Z,5.50
2022-08-19T21:23:09.025Z,4.07
2022-08-19T21:25:38.946Z,3.92
2022-08-19T21:28:07.165Z,4.50
2022-08-19T21:30:36.107Z,4.35
2022-08-19T21:33:05.085Z,3.70
2022-08-19T21:35:34.497Z,1.63
2022-08-19T21:38:02.826Z,3.45
2022-08-19T21:40:31.310Z,3.83
2022-08-19T21:42:59.621Z,1.90
2022-08-19T21:45:27.461Z,2.90
2022-08-19T21:47:55.404Z,1.95
2022-08-19T21:50:28.192Z,3.63
2022-08-19T21:52:57.860Z,3.83
2022-08-19T21:55:25.800Z,2.38
2022-08-19T21:57:54.498Z,2.80
2022-08-19T22:00:25.017Z,2.80
2022-08-19T22:02:52.877Z,2.75
2022-08-19T22:05:23.097Z,2.08
2022-08-19T22:07:51.713Z,3.90
2022-08-19T22:10:23.521Z,4.43
2022-08-19T22:12:51.849Z,7.20
2022-08-19T22:15:22.134Z,3.40
2022-08-19T22:17:50.121Z,5.07
2022-08-19T22:20:21.687Z,2.97
2022-08-19T22:22:51.828Z,2.50
2022-08-19T22:25:30.110Z,5.63
2022-08-19T22:28:01.591Z,3.38
2022-08-19T22:30:33.439Z,2.35
2022-08-19T22:33:04.437Z,3.08
2022-08-19T22:35:35.776Z,2.35
2022-08-19T22:38:07.198Z,3.33
2022-08-19T22:40:39.333Z,1.60
2022-08-19T22:43:10.094Z,4.32
2022-08-19T22:45:38.768Z,4.78
2022-08-19T22:48:09.068Z,2.42
2022-08-19T22:50:39.012Z,2.55
2022-08-19T22:53:07.353Z,1.80
2022-08-19T22:55:38.626Z,2.67
2022-08-19T22:58:06.974Z,1.60
2022-08-19T23:00:34.911Z,2.03
2022-08-19T23:03:03.046Z,3.45
2022-08-19T23:05:31.067Z,4.10
2022-08-19T23:07:59.544Z,6.10
2022-08-19T23:10:28.903Z,5.75
2022-08-19T23:13:00.133Z,5.47
2022-08-19T23:15:30.224Z,4.72
2022-08-19T23:18:00.201Z,6.18
2022-08-19T23:20:31.549Z,2.83
2022-08-19T23:22:59.913Z,3.83
2022-08-19T23:25:30.310Z,2.20
2022-08-19T23:28:17.113Z,5.82
2022-08-19T23:30:47.799Z,3.72
2022-08-19T23:33:21.318Z,4.65
2022-08-19T23:35:49.687Z,3.33
2022-08-19T23:38:18.925Z,5.28
2022-08-19T23:40:47.844Z,6.47
2022-08-19T23:43:20.414Z,3.58
2022-08-19T23:45:53.614Z,3.95
2022-08-19T23:48:26.069Z,2.47
2022-08-19T23:50:57.187Z,3.80
2022-08-19T23:53:25.608Z,5.88
2022-08-19T23:55:54.213Z,3.00
2022-08-19T23:58:23.872Z,3.17
